• Join FlightAware (Why Join?)
  • Login
  • US Flag 
04:14AM EST


 

Airport Tracker/Info


-or-


 

Live Flight TrackerFlight Track Log ✈ SKW6425 ✈ 10-Jul-2013 ✈ CYQR - KORD

Flight Track Log - Related Links

Times and Time Zones

All times are in EDT time to prevent confusion due to time zone crossing. See the SKW6425 flight status page for this flight to view local times or setup timezone preferences in your user account.

Time Position Orientation Groundspeed Altitude Reporting Facility
EDT Latitude Longitude Course Direction KTS MPH feet Rate Location/Type
12:30PM 50.3833 -104.7667 242° Southwest 210 242 4,700  Level Winnipeg Center
12:31PM 50.3333 -104.6833 133° Southeast 280 322 6,600 2,280 Climbing Winnipeg Center
12:32PM 50.2405 -104.1457 90° East  Level Estimated
12:32PM 50.3000 -104.5667 114° Southeast 290 334 9,300  Level Winnipeg Center
12:33PM 50.3154 -103.9838 54° Northeast  Level FlightAware Approximate
12:33PM 50.2500 -104.4667 128° Southeast 310 357 11,100  Level Winnipeg Center
12:34PM 50.2500 -103.8121 93° East  Level Estimated
12:34PM 50.2000 -104.3500 124° Southeast 330 380 12,900  Level Winnipeg Center
12:35PM 50.1333 -104.2000 125° Southeast 350 403 14,600 1,560 Climbing Winnipeg Center
12:36PM 50.1000 -104.0667 111° Southeast 360 414 16,100 1,500 Climbing Winnipeg Center
12:37PM 50.0333 -103.9333 128° Southeast 370 426 17,600 1,200 Climbing Winnipeg Center
12:38PM 49.9833 -103.7833 117° Southeast 380 437 18,600 1,140 Climbing Winnipeg Center
12:39PM 49.9167 -103.6500 128° Southeast 390 449 19,900 1,200 Climbing Winnipeg Center
12:40PM 49.8667 -103.5167 120° Southeast 400 460 21,000 1,140 Climbing Winnipeg Center
12:41PM 49.8000 -103.3500 122° Southeast 400 460 22,200 1,080 Climbing Winnipeg Center
12:42PM 49.7500 -103.2167 120° Southeast 410 472 23,200 960 Climbing Winnipeg Center
12:43PM 49.6833 -103.0667 124° Southeast 410 472 24,200 840 Climbing Winnipeg Center
12:44PM 49.6000 -102.9000 128° Southeast 420 483 24,900 600 Climbing Winnipeg Center
12:45PM 49.5500 -102.7500 117° Southeast 430 495 25,400 480 Climbing Winnipeg Center
12:46PM 49.4667 -102.5833 128° Southeast 440 506 25,900 480 Climbing Winnipeg Center
12:47PM 49.4167 -102.4167 115° Southeast 450 518 26,400 480 Climbing Winnipeg Center
12:48PM 49.3333 -102.2500 127° Southeast 460 529 26,900 480 Climbing Winnipeg Center
12:49PM 49.2667 -102.1000 124° Southeast 460 529 27,400 480 Climbing Winnipeg Center
12:50PM 49.2000 -101.9333 121° Southeast 470 541 27,900 480 Climbing Winnipeg Center
12:51PM 49.1333 -101.7667 121° Southeast 470 541 28,400 480 Climbing Winnipeg Center
12:52PM 49.0500 -101.6167 130° Southeast 470 541 28,900 540 Climbing Winnipeg Center
12:53PM 48.9667 -101.4500 127° Southeast 470 541 29,500 600 Climbing Winnipeg Center
12:54PM 48.9000 -101.2667 119° Southeast 480 552 30,100 480 Climbing Winnipeg Center
12:55PM 48.8556 -101.1364 117° Southeast 474 545 30,500 480 Climbing Minneapolis Center
12:56PM 48.7817 -100.9747 125° Southeast 471 542 31,100 480 Climbing Minneapolis Center
12:57PM 48.7075 -100.8122 125° Southeast 470 541 31,600 480 Climbing Minneapolis Center
12:58PM 48.6181 -100.6178 125° Southeast 470 541 32,200 540 Climbing Minneapolis Center
12:59PM 48.5167 -100.4500 132° Southeast 470 541 32,800 360 Climbing Winnipeg Center
01:00PM 48.4500 -100.3000 124° Southeast 470 541 33,000 60 Climbing Winnipeg Center
01:01PM 48.3667 -100.1333 127° Southeast 480 552 33,000  Level Winnipeg Center
01:02PM 48.2833 -99.9500 124° Southeast 490 564 33,000  Level Winnipeg Center
01:03PM 48.2000 -99.8000 130° Southeast 490 564 33,000  Level Winnipeg Center
01:04PM 48.1333 -99.6167 119° Southeast 500 575 33,000  Level Winnipeg Center
01:05PM 48.0500 -99.4333 124° Southeast 500 575 33,000  Level Winnipeg Center
01:06PM 47.9667 -99.2833 130° Southeast 500 575 33,000  Level Winnipeg Center
01:07PM 47.8833 -99.1167 127° Southeast 490 564 33,000  Level Winnipeg Center
01:08PM 47.8000 -98.9500 127° Southeast 500 575 33,000  Level Winnipeg Center
01:09PM 47.7333 -98.7833 121° Southeast 500 575 33,000  Level Winnipeg Center
01:10PM 47.6500 -98.6000 124° Southeast 500 575 33,000  Level Winnipeg Center
01:11PM 47.5667 -98.4500 129° Southeast 500 575 33,000  Level Winnipeg Center
01:12PM 47.4667 -98.2833 132° Southeast 500 575 33,000  Level Winnipeg Center
01:13PM 47.3833 -98.1333 129° Southeast 500 575 33,000  Level Winnipeg Center
01:14PM 47.3817 -98.0631 92° East 500 575 33,000  Level Minneapolis Center
01:15PM 47.2836 -97.8719 127° Southeast 497 572 33,000  Level Minneapolis Center
01:16PM 47.2022 -97.7119 127° Southeast 496 571 33,000  Level Minneapolis Center
01:17PM 47.1192 -97.5514 127° Southeast 496 571 33,000  Level Minneapolis Center
01:18PM 47.0358 -97.3917 127° Southeast 496 571 33,000  Level Minneapolis Center
01:19PM 46.9525 -97.2331 128° Southeast 495 570 33,000  Level Minneapolis Center
01:20PM 46.8528 -97.0403 127° Southeast 497 572 33,000  Level Minneapolis Center
01:21PM 46.7508 -96.8489 128° Southeast 499 574 33,000  Level Minneapolis Center
01:22PM 46.6583 -96.7025 133° Southeast 494 568 33,000  Level Minneapolis Center
01:23PM 46.5658 -96.5544 132° Southeast 495 570 33,000  Level Minneapolis Center
01:24PM 46.4903 -96.4364 133° Southeast 499 574 33,000  Level Minneapolis Center
01:25PM 46.3794 -96.2603 132° Southeast 495 570 33,000  Level Minneapolis Center
01:26PM 46.2672 -96.0856 133° Southeast 494 568 33,000  Level Minneapolis Center
01:27PM 46.1658 -95.9281 133° Southeast 495 570 33,000  Level Minneapolis Center
01:28PM 46.0725 -95.7842 133° Southeast 494 568 33,000  Level Minneapolis Center
01:29PM 45.9789 -95.6425 134° Southeast 490 564 33,000  Level Minneapolis Center
01:30PM 45.8619 -95.5722 157° South 458 527 33,000  Level Minneapolis Center
01:31PM 45.7425 -95.5339 167° South 441 507 33,000  Level Minneapolis Center
01:32PM 45.6269 -95.5006 169° South 427 491 33,000  Level Minneapolis Center
01:34PM 45.5150 -95.4681 169° South 413 475 33,000  Level Minneapolis Center
01:35PM 45.3814 -95.4292 168° South 409 471 33,000  Level Minneapolis Center
01:36PM 45.2694 -95.3967 168° South 410 472 33,000  Level Minneapolis Center
01:37PM 45.1581 -95.3661 169° South 408 470 33,000  Level Minneapolis Center
01:38PM 45.0467 -95.3333 168° South 409 471 33,000  Level Minneapolis Center
01:39PM 44.9353 -95.3017 169° South 407 468 33,000  Level Minneapolis Center
01:40PM 44.8003 -95.2628 168° South 412 474 33,000  Level Minneapolis Center
01:41PM 44.6978 -95.1794 150° Southeast 427 491 33,000  Level Minneapolis Center
01:42PM 44.6264 -95.0292 124° Southeast 457 526 33,000  Level Minneapolis Center
01:43PM 44.5483 -94.8344 119° Southeast 473 544 33,000  Level Minneapolis Center
01:44PM 44.4819 -94.6694 119° Southeast 482 555 33,000  Level Minneapolis Center
01:45PM 44.4139 -94.5044 120° Southeast 487 560 33,000  Level Minneapolis Center
01:46PM 44.3458 -94.3378 120° Southeast 493 567 33,000  Level Minneapolis Center
01:47PM 44.2419 -94.1783 132° Southeast 468 539 33,000  Level Minneapolis Center
01:48PM 44.1283 -94.1072 156° South 448 516 33,000  Level Minneapolis Center
01:49PM 43.9914 -94.0261 157° South 447 514 33,000  Level Minneapolis Center
01:50PM 43.8742 -93.9606 158° South 450 518 33,000  Level Minneapolis Center
01:52PM 43.7581 -93.8964 158° South 451 519 33,000  Level Minneapolis Center
01:53PM 43.6322 -93.7869 148° Southeast 469 540 33,000  Level Minneapolis Center
01:54PM 43.5722 -93.6297 118° Southeast 471 542 33,000  Level Minneapolis Center
01:55PM 43.5394 -93.4561 105° East 472 543 33,000  Level Minneapolis Center
01:56PM 43.5064 -93.2828 105° East 473 544 33,000  Level Minneapolis Center
01:57PM 43.4753 -93.1042 103° East 482 555 33,000  Level Minneapolis Center
01:58PM 43.4342 -92.8892 105° East 489 563 33,000  Level Minneapolis Center
01:59PM 43.3981 -92.7083 105° East 494 568 33,000 -300 Level Minneapolis Center
02:00PM 43.3617 -92.5264 105° East 499 574 32,400 -840 Descending Minneapolis Center
02:01PM 43.3172 -92.3050 105° East 498 573 31,200 -720 Descending Minneapolis Center
02:02PM 43.2842 -92.1372 105° East 460 529 31,000 -120 Descending Minneapolis Center
02:03PM 43.2422 -91.9381 106° East 455 524 31,000  Level Minneapolis Center
02:05PM 43.1683 -91.5997 107° East 463 533 31,000  Level Minneapolis Center
02:06PM 43.1097 -91.4372 116° Southeast 473 544 31,000 -240 Level Minneapolis Center
02:07PM 43.0394 -91.2383 116° Southeast 486 559 30,600 -900 Descending Chicago Center
02:08PM 42.9800 -91.0689 116° Southeast 493 567 29,100 -900 Descending Chicago Center
02:09PM 42.9233 -90.9061 115° Southeast 478 550 28,800 -660 Descending Chicago Center
02:10PM 42.8642 -90.7378 116° Southeast 491 565 27,800 -900 Descending Chicago Center
02:11PM 42.8031 -90.5664 116° Southeast 505 581 27,000 -780 Descending Chicago Center
02:12PM 42.7450 -90.4000 115° Southeast 492 566 26,200 -840 Descending Chicago Center
02:14PM 42.6742 -90.2081 117° Southeast 478 550 25,300 -780 Descending Chicago Center
02:15PM 42.6156 -90.0461 116° Southeast 481 554 24,700 -780 Descending Chicago Center
02:16PM 42.5581 -89.8889 116° Southeast 478 550 23,700 -840 Descending Chicago Center
02:17PM 42.5086 -89.6950 109° East 464 534 23,000 -360 Descending Chicago Center
02:18PM 42.4906 -89.5222 98° East 464 534 23,000 -420 Level Chicago Center
02:19PM 42.4708 -89.3492 99° East 463 533 22,200 -900 Descending Chicago Center
02:20PM 42.4517 -89.1794 99° East 457 526 21,200 -1,920 Descending Chicago Center
02:21PM 42.4328 -89.0153 99° East 443 510 18,300 -3,000 Descending Chicago Center
02:22PM 42.4128 -88.8344 98° East 419 482 15,100 -2,820 Descending Chicago Center
02:23PM 42.3956 -88.6825 99° East 409 471 12,500 -2,340 Descending Chicago Center
02:24PM 42.3783 -88.5378 99° East 393 452 10,300 -1,200 Descending Chicago Center
02:25PM 42.3442 -88.4042 109° East 380 437 10,000 -180 Descending Chicago Center
02:26PM 42.2817 -88.2956 128° Southeast 375 432 10,000  Level Chicago Center
02:27PM 42.2033 -88.1619 128° Southeast 377 434 10,000 -180 Level Chicago Center
02:28PM 42.1339 -88.0781 138° Southeast 340 391 9,700 -1,140 Descending Chicago Center
02:29PM 42.0914 -87.9900 123° Southeast 291 335 7,700 -1,320 Descending Chicago Center
02:30PM 42.0917 -87.8767 90° East 297 342 7,000 -360 Descending Chicago Center
02:31PM 42.0917 -87.7850 90° East 257 296 7,000 -720 Level Chicago Center
02:32PM 42.0908 -87.7050 91° East 222 255 5,600 -1,320 Descending Chicago Center
02:33PM 42.0489 -87.6478 135° Southeast 214 246 4,300 -1,080 Descending Chicago Center
02:34PM 42.0094 -87.6903 219° Southwest 193 222 3,400 -900 Descending Chicago Center